BAW4424 EGLL-EBBR
Flight info
| Callsign | BAW4424 |
|---|---|
| Flight time | 0h 39m |
| Altitude | 23000 |
| Route | DET Q70 KOK |
| Aircraft | A320/M-SDE3FGHIRWY/LB1 |
Departure
| Time | 2026-05-07 21:06 |
|---|---|
| Airport | London Heathrow Airport (EGLL) |
Arrival
| Time | 2026-05-07 21:45 |
|---|---|
| Airport | Brussels Airport (EBBR) |
| Time | Latitude | Longitude | Altitude | Speed | Heading |
|---|---|---|---|---|---|
| 2026-05-07 20:21 | 51.47047 | -0.48577 | 88 ft | 0 kts | 269° |
| 2026-05-07 20:51 | 51.47047 | -0.48566 | 89 ft | 3 kts | 269° |
| 2026-05-07 20:51 | 51.47048 | -0.48538 | 91 ft | 2 kts | 269° |
| 2026-05-07 20:51 | 51.47047 | -0.48511 | 91 ft | 2 kts | 307° |
| 2026-05-07 20:52 | 51.47035 | -0.48495 | 89 ft | 2 kts | 329° |
| 2026-05-07 20:52 | 51.47022 | -0.48483 | 90 ft | 2 kts | 330° |
| 2026-05-07 20:52 | 51.47010 | -0.48473 | 88 ft | 0 kts | 357° |
| 2026-05-07 20:57 | 51.47022 | -0.48474 | 92 ft | 3 kts | 0° |
| 2026-05-07 20:57 | 51.47046 | -0.48451 | 89 ft | 5 kts | 55° |
| 2026-05-07 20:57 | 51.47049 | -0.48396 | 90 ft | 6 kts | 102° |
| 2026-05-07 20:57 | 51.47006 | -0.48354 | 92 ft | 9 kts | 178° |
| 2026-05-07 20:58 | 51.46931 | -0.48354 | 89 ft | 12 kts | 180° |
| 2026-05-07 20:58 | 51.46840 | -0.48355 | 91 ft | 11 kts | 180° |
| 2026-05-07 20:58 | 51.46822 | -0.48355 | 92 ft | 0 kts | 179° |
| 2026-05-07 21:00 | 51.46792 | -0.48354 | 93 ft | 8 kts | 180° |
| 2026-05-07 21:01 | 51.46744 | -0.48388 | 94 ft | 8 kts | 249° |
| 2026-05-07 21:01 | 51.46741 | -0.48508 | 92 ft | 13 kts | 268° |
| 2026-05-07 21:01 | 51.46737 | -0.48670 | 92 ft | 16 kts | 264° |
| 2026-05-07 21:01 | 51.46691 | -0.48750 | 95 ft | 1 kts | 178° |
| 2026-05-07 21:03 | 51.46675 | -0.48749 | 93 ft | 4 kts | 178° |
| 2026-05-07 21:03 | 51.46632 | -0.48751 | 92 ft | 8 kts | 188° |
| 2026-05-07 21:03 | 51.46597 | -0.48768 | 92 ft | 0 kts | 200° |
| 2026-05-07 21:04 | 51.46581 | -0.48777 | 92 ft | 4 kts | 198° |
| 2026-05-07 21:04 | 51.46541 | -0.48787 | 91 ft | 7 kts | 180° |
| 2026-05-07 21:04 | 51.46495 | -0.48751 | 93 ft | 8 kts | 134° |
| 2026-05-07 21:05 | 51.46476 | -0.48661 | 93 ft | 10 kts | 92° |
| 2026-05-07 21:05 | 51.46477 | -0.48632 | 93 ft | 0 kts | 88° |
| 2026-05-07 21:05 | 51.46481 | -0.48352 | 95 ft | 70 kts | 90° |
| 2026-05-07 21:05 | 51.46480 | -0.47103 | 91 ft | 151 kts | 89° |
| 2026-05-07 21:06 | 51.46480 | -0.45302 | 710 ft | 166 kts | 92° |
| 2026-05-07 21:06 | 51.46449 | -0.43343 | 1422 ft | 183 kts | 93° |
| 2026-05-07 21:06 | 51.46307 | -0.41212 | 2046 ft | 202 kts | 111° |
| 2026-05-07 21:06 | 51.45507 | -0.39196 | 2715 ft | 226 kts | 125° |
| 2026-05-07 21:07 | 51.44599 | -0.37030 | 3617 ft | 246 kts | 121° |
| 2026-05-07 21:07 | 51.43800 | -0.34538 | 4514 ft | 256 kts | 111° |
| 2026-05-07 21:07 | 51.43264 | -0.31768 | 5461 ft | 261 kts | 103° |
| 2026-05-07 21:07 | 51.42842 | -0.28908 | 6386 ft | 267 kts | 103° |
| 2026-05-07 21:08 | 51.42422 | -0.25945 | 7216 ft | 275 kts | 103° |
| 2026-05-07 21:08 | 51.42013 | -0.22949 | 8060 ft | 282 kts | 102° |
| 2026-05-07 21:08 | 51.41591 | -0.19825 | 8924 ft | 288 kts | 103° |
| 2026-05-07 21:08 | 51.41168 | -0.16693 | 9739 ft | 294 kts | 103° |
| 2026-05-07 21:09 | 51.40726 | -0.13437 | 10344 ft | 308 kts | 103° |
| 2026-05-07 21:09 | 51.40249 | -0.09950 | 10613 ft | 331 kts | 103° |
| 2026-05-07 21:09 | 51.39738 | -0.06243 | 10975 ft | 348 kts | 103° |
| 2026-05-07 21:09 | 51.39206 | -0.02398 | 11666 ft | 353 kts | 104° |
| 2026-05-07 21:10 | 51.38672 | 0.01443 | 12485 ft | 355 kts | 104° |
| 2026-05-07 21:10 | 51.38131 | 0.05315 | 13272 ft | 358 kts | 104° |
| 2026-05-07 21:10 | 51.37583 | 0.09235 | 14022 ft | 361 kts | 104° |
| 2026-05-07 21:10 | 51.37037 | 0.13130 | 14676 ft | 365 kts | 104° |
| 2026-05-07 21:11 | 51.36477 | 0.17122 | 15307 ft | 369 kts | 104° |
| 2026-05-07 21:11 | 51.35911 | 0.21153 | 15919 ft | 373 kts | 104° |
| 2026-05-07 21:11 | 51.34759 | 0.29301 | 17161 ft | 381 kts | 104° |
| 2026-05-07 21:12 | 51.34168 | 0.33465 | 17786 ft | 385 kts | 104° |
| 2026-05-07 21:12 | 51.33564 | 0.37684 | 18423 ft | 389 kts | 104° |
| 2026-05-07 21:12 | 51.33215 | 0.40115 | 18744 ft | 391 kts | 104° |
| 2026-05-07 21:12 | 51.33012 | 0.41532 | 18932 ft | 393 kts | 104° |
| 2026-05-07 21:13 | 51.32406 | 0.45755 | 19319 ft | 396 kts | 104° |
| 2026-05-07 21:13 | 51.31787 | 0.50077 | 19918 ft | 400 kts | 104° |
| 2026-05-07 21:13 | 51.31158 | 0.54456 | 20530 ft | 404 kts | 104° |
| 2026-05-07 21:13 | 51.30549 | 0.58857 | 21123 ft | 408 kts | 101° |
| 2026-05-07 21:14 | 51.30270 | 0.63339 | 21685 ft | 413 kts | 94° |
| 2026-05-07 21:14 | 51.30111 | 0.67940 | 22249 ft | 416 kts | 95° |
| 2026-05-07 21:14 | 51.29948 | 0.72586 | 22787 ft | 420 kts | 95° |
| 2026-05-07 21:14 | 51.29781 | 0.77251 | 22978 ft | 422 kts | 95° |
| 2026-05-07 21:15 | 51.29606 | 0.82039 | 23025 ft | 434 kts | 95° |
| 2026-05-07 21:15 | 51.29424 | 0.86895 | 23046 ft | 438 kts | 95° |
| 2026-05-07 21:15 | 51.29241 | 0.91690 | 23070 ft | 439 kts | 95° |
| 2026-05-07 21:15 | 51.29053 | 0.96574 | 23095 ft | 439 kts | 95° |
| 2026-05-07 21:16 | 51.28864 | 1.01468 | 23092 ft | 439 kts | 95° |
| 2026-05-07 21:16 | 51.28675 | 1.06345 | 23096 ft | 439 kts | 95° |
| 2026-05-07 21:16 | 51.28486 | 1.11225 | 23096 ft | 440 kts | 95° |
| 2026-05-07 21:16 | 51.28296 | 1.16110 | 23098 ft | 440 kts | 95° |
| 2026-05-07 21:17 | 51.28106 | 1.20937 | 23098 ft | 440 kts | 95° |
| 2026-05-07 21:17 | 51.27908 | 1.25801 | 23098 ft | 440 kts | 95° |
| 2026-05-07 21:17 | 51.27706 | 1.30673 | 23098 ft | 440 kts | 95° |
| 2026-05-07 21:17 | 51.27499 | 1.35574 | 23093 ft | 440 kts | 95° |
| 2026-05-07 21:18 | 51.27295 | 1.40431 | 23096 ft | 440 kts | 95° |
| 2026-05-07 21:18 | 51.27092 | 1.45272 | 23089 ft | 440 kts | 95° |
| 2026-05-07 21:18 | 51.26885 | 1.50153 | 23093 ft | 440 kts | 95° |
| 2026-05-07 21:18 | 51.26675 | 1.55058 | 23090 ft | 440 kts | 95° |
| 2026-05-07 21:19 | 51.26536 | 1.58294 | 23097 ft | 440 kts | 95° |
| 2026-05-07 21:19 | 51.26256 | 1.64814 | 23101 ft | 440 kts | 95° |
| 2026-05-07 21:19 | 51.26046 | 1.69636 | 23096 ft | 440 kts | 95° |
| 2026-05-07 21:19 | 51.25831 | 1.74518 | 23098 ft | 440 kts | 95° |
| 2026-05-07 21:20 | 51.25610 | 1.79399 | 23090 ft | 440 kts | 95° |
| 2026-05-07 21:20 | 51.25383 | 1.84297 | 23094 ft | 440 kts | 95° |
| 2026-05-07 21:20 | 51.25159 | 1.89107 | 23102 ft | 440 kts | 95° |
| 2026-05-07 21:20 | 51.24931 | 1.93985 | 23095 ft | 439 kts | 95° |
| 2026-05-07 21:21 | 51.24699 | 1.98862 | 23096 ft | 439 kts | 95° |
| 2026-05-07 21:21 | 51.24468 | 2.03715 | 23092 ft | 439 kts | 95° |
| 2026-05-07 21:21 | 51.24235 | 2.08602 | 23092 ft | 440 kts | 95° |
| 2026-05-07 21:21 | 51.24004 | 2.13476 | 23090 ft | 440 kts | 95° |
| 2026-05-07 21:22 | 51.23774 | 2.18290 | 23090 ft | 440 kts | 95° |
| 2026-05-07 21:22 | 51.23539 | 2.23156 | 23084 ft | 440 kts | 95° |
| 2026-05-07 21:22 | 51.23300 | 2.28017 | 23088 ft | 440 kts | 95° |
| 2026-05-07 21:22 | 51.23030 | 2.32895 | 23080 ft | 439 kts | 99° |
| 2026-05-07 21:23 | 51.22371 | 2.37635 | 23082 ft | 437 kts | 109° |
| 2026-05-07 21:23 | 51.21245 | 2.42063 | 23082 ft | 435 kts | 118° |
| 2026-05-07 21:23 | 51.19665 | 2.46172 | 23078 ft | 433 kts | 128° |
| 2026-05-07 21:23 | 51.17748 | 2.49864 | 23074 ft | 432 kts | 133° |
| 2026-05-07 21:24 | 51.15766 | 2.53518 | 23078 ft | 433 kts | 133° |
| 2026-05-07 21:24 | 51.13800 | 2.57147 | 23080 ft | 433 kts | 133° |
| 2026-05-07 21:24 | 51.11882 | 2.60802 | 23076 ft | 434 kts | 128° |
| 2026-05-07 21:24 | 51.10272 | 2.64893 | 23078 ft | 436 kts | 118° |
| 2026-05-07 21:25 | 51.09108 | 2.69354 | 23078 ft | 438 kts | 109° |
| 2026-05-07 21:25 | 51.08595 | 2.72473 | 23081 ft | 439 kts | 102° |
| 2026-05-07 21:25 | 51.07845 | 2.78830 | 23083 ft | 439 kts | 102° |
| 2026-05-07 21:25 | 51.07466 | 2.82008 | 23096 ft | 439 kts | 102° |
| 2026-05-07 21:26 | 51.06888 | 2.86784 | 23096 ft | 439 kts | 102° |
| 2026-05-07 21:26 | 51.06305 | 2.91569 | 23089 ft | 439 kts | 102° |
| 2026-05-07 21:26 | 51.05722 | 2.96353 | 23088 ft | 440 kts | 102° |
| 2026-05-07 21:26 | 51.05150 | 3.01052 | 23084 ft | 435 kts | 102° |
| 2026-05-07 21:27 | 51.04578 | 3.05709 | 22804 ft | 422 kts | 102° |
| 2026-05-07 21:27 | 51.04019 | 3.10249 | 22310 ft | 416 kts | 102° |
| 2026-05-07 21:27 | 51.03463 | 3.14753 | 21792 ft | 412 kts | 102° |
| 2026-05-07 21:27 | 51.02912 | 3.19212 | 21296 ft | 408 kts | 102° |
| 2026-05-07 21:28 | 51.02375 | 3.23574 | 20815 ft | 405 kts | 102° |
| 2026-05-07 21:28 | 51.01831 | 3.27960 | 20329 ft | 402 kts | 102° |
| 2026-05-07 21:28 | 51.01288 | 3.32291 | 19833 ft | 398 kts | 102° |
| 2026-05-07 21:28 | 51.00746 | 3.36596 | 19347 ft | 395 kts | 102° |
| 2026-05-07 21:29 | 51.00212 | 3.40807 | 18865 ft | 392 kts | 102° |
| 2026-05-07 21:29 | 50.99677 | 3.45031 | 18383 ft | 388 kts | 102° |
| 2026-05-07 21:29 | 50.99146 | 3.49226 | 17830 ft | 385 kts | 102° |
| 2026-05-07 21:29 | 50.98617 | 3.53392 | 17254 ft | 382 kts | 102° |
| 2026-05-07 21:30 | 50.98102 | 3.57460 | 16698 ft | 378 kts | 102° |
| 2026-05-07 21:30 | 50.97585 | 3.61529 | 16149 ft | 375 kts | 102° |
| 2026-05-07 21:30 | 50.97068 | 3.65574 | 15603 ft | 372 kts | 102° |
| 2026-05-07 21:30 | 50.96554 | 3.69595 | 15064 ft | 368 kts | 102° |
| 2026-05-07 21:31 | 50.96044 | 3.73568 | 14547 ft | 365 kts | 102° |
| 2026-05-07 21:31 | 50.95550 | 3.77410 | 14373 ft | 352 kts | 103° |
| 2026-05-07 21:31 | 50.95067 | 3.81155 | 14250 ft | 339 kts | 103° |
| 2026-05-07 21:31 | 50.94604 | 3.84734 | 14130 ft | 324 kts | 103° |
| 2026-05-07 21:32 | 50.94152 | 3.88187 | 13908 ft | 317 kts | 103° |
| 2026-05-07 21:32 | 50.93697 | 3.91623 | 13367 ft | 314 kts | 103° |
| 2026-05-07 21:32 | 50.93255 | 3.94974 | 12839 ft | 308 kts | 103° |
| 2026-05-07 21:32 | 50.92890 | 3.98270 | 12331 ft | 304 kts | 93° |
| 2026-05-07 21:33 | 50.93228 | 4.01542 | 11821 ft | 301 kts | 67° |
| 2026-05-07 21:33 | 50.94252 | 4.04444 | 11318 ft | 300 kts | 57° |
| 2026-05-07 21:33 | 50.95388 | 4.07205 | 10813 ft | 298 kts | 57° |
| 2026-05-07 21:33 | 50.96529 | 4.09936 | 10340 ft | 302 kts | 57° |
| 2026-05-07 21:34 | 50.97700 | 4.12737 | 9832 ft | 305 kts | 57° |
| 2026-05-07 21:34 | 50.98864 | 4.15566 | 9297 ft | 308 kts | 61° |
| 2026-05-07 21:34 | 50.99785 | 4.18655 | 8756 ft | 309 kts | 68° |
| 2026-05-07 21:34 | 51.00525 | 4.21863 | 8232 ft | 310 kts | 71° |
| 2026-05-07 21:35 | 51.01233 | 4.25127 | 7722 ft | 311 kts | 71° |
| 2026-05-07 21:35 | 51.01930 | 4.28354 | 7218 ft | 312 kts | 71° |
| 2026-05-07 21:35 | 51.02630 | 4.31591 | 6721 ft | 305 kts | 71° |
| 2026-05-07 21:35 | 51.03305 | 4.34715 | 6205 ft | 292 kts | 72° |
| 2026-05-07 21:36 | 51.03894 | 4.37707 | 5696 ft | 281 kts | 80° |
| 2026-05-07 21:36 | 51.04144 | 4.40727 | 5170 ft | 271 kts | 85° |
| 2026-05-07 21:36 | 51.04320 | 4.43681 | 4657 ft | 264 kts | 85° |
| 2026-05-07 21:36 | 51.04483 | 4.46553 | 4141 ft | 257 kts | 85° |
| 2026-05-07 21:37 | 51.04640 | 4.49366 | 3624 ft | 252 kts | 85° |
| 2026-05-07 21:37 | 51.04789 | 4.52100 | 3211 ft | 243 kts | 85° |
| 2026-05-07 21:37 | 51.04920 | 4.54681 | 2973 ft | 232 kts | 89° |
| 2026-05-07 21:37 | 51.04738 | 4.57211 | 2772 ft | 231 kts | 102° |
| 2026-05-07 21:38 | 51.04360 | 4.59669 | 2564 ft | 224 kts | 108° |
| 2026-05-07 21:38 | 51.03846 | 4.61980 | 2366 ft | 220 kts | 110° |
| 2026-05-07 21:38 | 51.03226 | 4.64204 | 2153 ft | 219 kts | 116° |
| 2026-05-07 21:38 | 51.02541 | 4.66361 | 2035 ft | 218 kts | 116° |
| 2026-05-07 21:39 | 51.01850 | 4.68500 | 2002 ft | 219 kts | 117° |
| 2026-05-07 21:39 | 51.01162 | 4.70630 | 1993 ft | 219 kts | 117° |
| 2026-05-07 21:39 | 51.00463 | 4.72784 | 1988 ft | 220 kts | 116° |
| 2026-05-07 21:39 | 50.99760 | 4.74939 | 1989 ft | 220 kts | 117° |
| 2026-05-07 21:40 | 50.99059 | 4.77082 | 1996 ft | 220 kts | 117° |
| 2026-05-07 21:40 | 50.98128 | 4.78995 | 1984 ft | 221 kts | 145° |
| 2026-05-07 21:40 | 50.96663 | 4.79584 | 1987 ft | 221 kts | 187° |
| 2026-05-07 21:40 | 50.95385 | 4.78488 | 1986 ft | 206 kts | 232° |
| 2026-05-07 21:41 | 50.94997 | 4.76439 | 1992 ft | 189 kts | 274° |
| 2026-05-07 21:41 | 50.95003 | 4.74453 | 1985 ft | 177 kts | 251° |
| 2026-05-07 21:41 | 50.94522 | 4.72682 | 2025 ft | 174 kts | 249° |
| 2026-05-07 21:41 | 50.94127 | 4.70884 | 1999 ft | 170 kts | 250° |
| 2026-05-07 21:42 | 50.93738 | 4.69124 | 2023 ft | 168 kts | 249° |
| 2026-05-07 21:42 | 50.93358 | 4.67442 | 2005 ft | 158 kts | 249° |
| 2026-05-07 21:42 | 50.92991 | 4.65827 | 1929 ft | 153 kts | 249° |
| 2026-05-07 21:42 | 50.92630 | 4.64253 | 1772 ft | 150 kts | 249° |
| 2026-05-07 21:43 | 50.92276 | 4.62703 | 1580 ft | 149 kts | 249° |
| 2026-05-07 21:43 | 50.91921 | 4.61157 | 1392 ft | 148 kts | 249° |
| 2026-05-07 21:43 | 50.91573 | 4.59641 | 1192 ft | 148 kts | 249° |
| 2026-05-07 21:43 | 50.91221 | 4.58106 | 982 ft | 147 kts | 249° |
| 2026-05-07 21:44 | 50.90871 | 4.56582 | 780 ft | 146 kts | 249° |
| 2026-05-07 21:44 | 50.90528 | 4.55094 | 582 ft | 144 kts | 250° |
| 2026-05-07 21:44 | 50.90186 | 4.53601 | 372 ft | 143 kts | 250° |
| 2026-05-07 21:44 | 50.89847 | 4.52126 | 192 ft | 142 kts | 250° |
| 2026-05-07 21:45 | 50.89544 | 4.50808 | 144 ft | 105 kts | 250° |
| 2026-05-07 21:45 | 50.89403 | 4.50199 | 147 ft | 32 kts | 250° |
| 2026-05-07 21:45 | 50.89338 | 4.49922 | 150 ft | 18 kts | 251° |
| 2026-05-07 21:45 | 50.89351 | 4.49715 | 146 ft | 20 kts | 298° |
| 2026-05-07 21:46 | 50.89418 | 4.49573 | 144 ft | 15 kts | 307° |
| 2026-05-07 21:46 | 50.89468 | 4.49469 | 141 ft | 14 kts | 307° |
| 2026-05-07 21:46 | 50.89529 | 4.49339 | 140 ft | 13 kts | 306° |
| 2026-05-07 21:46 | 50.89584 | 4.49221 | 143 ft | 14 kts | 306° |
| 2026-05-07 21:47 | 50.89655 | 4.49141 | 144 ft | 14 kts | 7° |
| 2026-05-07 21:47 | 50.89753 | 4.49190 | 145 ft | 15 kts | 15° |
| 2026-05-07 21:47 | 50.89862 | 4.49233 | 146 ft | 18 kts | 14° |
| 2026-05-07 21:47 | 50.89965 | 4.49227 | 144 ft | 12 kts | 297° |
| 2026-05-07 21:48 | 50.89957 | 4.49156 | 145 ft | 0 kts | 247° |